createdAt,value
2018-04-24T00:00:01.851Z,13.90
2018-04-24T00:02:29.798Z,13.80
2018-04-24T00:04:57.281Z,13.90
2018-04-24T00:07:24.746Z,13.80
2018-04-24T00:09:52.235Z,13.80
2018-04-24T00:12:19.673Z,13.70
2018-04-24T00:14:47.121Z,13.70
2018-04-24T00:17:14.581Z,13.70
2018-04-24T00:19:42.033Z,13.70
2018-04-24T00:22:09.500Z,13.60
2018-04-24T00:24:36.992Z,13.60
2018-04-24T00:27:04.452Z,13.60
2018-04-24T00:29:31.925Z,13.50
2018-04-24T00:31:59.391Z,13.50
2018-04-24T00:34:26.920Z,13.50
2018-04-24T00:36:54.321Z,13.50
2018-04-24T00:39:21.794Z,13.40
2018-04-24T00:41:49.266Z,13.40
2018-04-24T00:44:17.491Z,13.30
2018-04-24T00:46:44.938Z,13.30
2018-04-24T00:49:12.425Z,13.30
2018-04-24T00:51:39.984Z,13.20
2018-04-24T00:54:07.438Z,13.30
2018-04-24T00:56:34.926Z,13.20
2018-04-24T00:59:02.365Z,13.20
2018-04-24T01:01:29.811Z,13.30
2018-04-24T01:03:57.284Z,13.20
2018-04-24T01:06:24.722Z,13.20
2018-04-24T01:08:52.248Z,13.30
2018-04-24T01:11:19.715Z,13.30
2018-04-24T01:13:47.274Z,13.30
2018-04-24T01:16:14.725Z,13.20
2018-04-24T01:18:42.289Z,13.20
2018-04-24T01:21:09.774Z,13.20
2018-04-24T01:23:37.245Z,13.00
2018-04-24T01:26:04.878Z,13.00
2018-04-24T01:28:32.343Z,13.00
2018-04-24T01:30:59.810Z,13.00
2018-04-24T01:33:27.279Z,12.90
2018-04-24T01:35:54.753Z,12.90
2018-04-24T01:38:22.294Z,12.80
2018-04-24T01:40:49.741Z,12.80
2018-04-24T01:43:17.218Z,12.80
2018-04-24T01:45:44.662Z,12.80
2018-04-24T01:48:12.111Z,12.80
2018-04-24T01:50:39.585Z,12.80
2018-04-24T01:53:07.026Z,12.70
2018-04-24T01:55:34.499Z,12.70
2018-04-24T01:58:01.941Z,12.70
2018-04-24T02:00:30.288Z,12.60
2018-04-24T02:02:57.841Z,12.60
2018-04-24T02:05:25.312Z,12.60
2018-04-24T02:07:52.769Z,12.60
2018-04-24T02:10:20.250Z,12.50
2018-04-24T02:12:47.698Z,12.40
2018-04-24T02:15:15.261Z,12.50
2018-04-24T02:17:42.717Z,12.50
2018-04-24T02:20:10.192Z,12.50
2018-04-24T02:22:37.713Z,12.40
2018-04-24T02:25:05.169Z,12.20
2018-04-24T02:27:32.545Z,12.20
2018-04-24T02:30:00.015Z,12.20
2018-04-24T02:32:27.479Z,12.20
2018-04-24T02:34:54.946Z,12.20
2018-04-24T02:37:22.410Z,12.30
2018-04-24T02:39:49.978Z,12.20
2018-04-24T02:42:17.435Z,12.20
2018-04-24T02:44:44.901Z,12.20
2018-04-24T02:47:12.383Z,12.20
2018-04-24T02:49:39.944Z,12.10
2018-04-24T02:52:07.382Z,12.10
2018-04-24T02:54:34.852Z,12.00
2018-04-24T02:57:02.430Z,12.00
2018-04-24T02:59:29.981Z,12.00
2018-04-24T03:01:57.433Z,12.10
2018-04-24T03:04:24.917Z,12.10
2018-04-24T03:06:52.372Z,12.00
2018-04-24T03:09:19.846Z,12.00
2018-04-24T03:11:47.370Z,12.00
2018-04-24T03:14:14.777Z,12.00
2018-04-24T03:16:42.316Z,12.00
2018-04-24T03:19:09.769Z,11.90
2018-04-24T03:21:37.243Z,11.80
2018-04-24T03:24:04.686Z,11.80
2018-04-24T03:26:32.156Z,11.80
2018-04-24T03:28:59.663Z,11.80
2018-04-24T03:31:27.133Z,11.80
2018-04-24T03:33:54.590Z,11.80
2018-04-24T03:36:22.139Z,11.70
2018-04-24T03:38:49.600Z,11.60
2018-04-24T03:41:17.078Z,11.70
2018-04-24T03:43:44.722Z,11.70
2018-04-24T03:46:12.195Z,11.70
2018-04-24T03:48:40.493Z,11.70
2018-04-24T03:51:07.954Z,11.70
2018-04-24T03:53:35.404Z,11.70
2018-04-24T03:56:02.853Z,11.70
2018-04-24T03:58:30.311Z,11.70
2018-04-24T04:00:57.787Z,11.80
2018-04-24T04:03:25.229Z,11.80
2018-04-24T04:05:52.674Z,11.70
2018-04-24T04:08:20.138Z,11.70
2018-04-24T04:10:47.613Z,11.60
2018-04-24T04:13:15.055Z,11.60
2018-04-24T04:15:42.530Z,11.60
2018-04-24T04:18:22.002Z,11.60
2018-04-24T04:21:01.399Z,11.60
2018-04-24T04:23:40.838Z,11.70
2018-04-24T04:26:08.291Z,11.60
2018-04-24T04:28:35.789Z,11.70
2018-04-24T04:31:03.249Z,11.70
2018-04-24T04:33:30.694Z,11.60
2018-04-24T04:35:58.173Z,11.60
2018-04-24T04:38:25.646Z,11.60
2018-04-24T04:40:53.207Z,11.60
2018-04-24T04:43:20.778Z,11.60
2018-04-24T04:45:48.249Z,11.60
2018-04-24T04:48:15.715Z,11.70
2018-04-24T04:50:43.160Z,11.60
2018-04-24T04:53:10.634Z,11.60
2018-04-24T04:55:38.090Z,11.60
2018-04-24T04:58:05.561Z,11.60
2018-04-24T05:00:33.034Z,11.60
2018-04-24T05:03:00.573Z,11.70
2018-04-24T05:05:28.022Z,11.60
2018-04-24T05:07:55.478Z,11.70
2018-04-24T05:10:22.935Z,11.70
2018-04-24T05:12:50.390Z,11.80
2018-04-24T05:15:17.864Z,11.80
2018-04-24T05:17:45.365Z,11.90
2018-04-24T05:20:12.922Z,11.90
2018-04-24T05:22:40.492Z,12.00
2018-04-24T05:25:07.952Z,12.00
2018-04-24T05:27:35.420Z,12.10
2018-04-24T05:30:02.883Z,12.20
2018-04-24T05:32:31.121Z,12.30
2018-04-24T05:34:58.784Z,12.30
2018-04-24T05:37:26.388Z,12.40
2018-04-24T05:39:53.856Z,12.40
2018-04-24T05:42:21.370Z,12.40
2018-04-24T05:44:48.843Z,12.30
2018-04-24T05:47:16.337Z,12.40
2018-04-24T05:49:43.805Z,12.60
2018-04-24T05:52:11.278Z,12.60
2018-04-24T05:54:38.752Z,12.70
2018-04-24T05:57:07.110Z,13.00
2018-04-24T05:59:34.574Z,13.00
2018-04-24T06:02:02.119Z,13.10
2018-04-24T06:04:29.589Z,13.20
2018-04-24T06:06:57.238Z,13.30
2018-04-24T06:09:24.823Z,13.50
2018-04-24T06:11:52.303Z,13.60
2018-04-24T06:14:19.767Z,13.60
2018-04-24T06:16:47.246Z,13.70
2018-04-24T06:19:15.593Z,13.80
2018-04-24T06:21:43.074Z,13.80
2018-04-24T06:24:10.548Z,13.90
2018-04-24T06:26:38.019Z,14.00
2018-04-24T06:29:05.478Z,14.10
2018-04-24T06:31:33.703Z,14.30
2018-04-24T06:34:01.189Z,14.30
2018-04-24T06:36:28.702Z,14.40
2018-04-24T06:38:56.320Z,14.50
2018-04-24T06:41:23.798Z,14.60
2018-04-24T06:43:51.259Z,14.80
2018-04-24T06:46:18.738Z,14.90
2018-04-24T06:48:46.987Z,15.00
2018-04-24T06:51:14.513Z,15.00
2018-04-24T06:53:41.950Z,15.20
2018-04-24T06:56:10.178Z,15.30
2018-04-24T06:58:37.736Z,15.30
2018-04-24T07:01:05.185Z,15.50
2018-04-24T07:03:32.646Z,15.40
2018-04-24T07:06:00.119Z,15.60
2018-04-24T07:08:28.480Z,15.70
2018-04-24T07:10:55.963Z,15.80
2018-04-24T07:13:23.743Z,15.80
2018-04-24T07:15:51.226Z,15.90
2018-04-24T07:18:19.827Z,16.00
2018-04-24T07:20:47.293Z,15.90
2018-04-24T07:23:14.771Z,16.00
2018-04-24T07:25:42.258Z,16.10
2018-04-24T07:28:09.723Z,16.20
2018-04-24T07:30:37.192Z,16.30
2018-04-24T07:33:04.683Z,16.50
2018-04-24T07:35:32.155Z,16.50
2018-04-24T07:38:00.455Z,16.50
2018-04-24T07:40:28.710Z,16.70
2018-04-24T07:42:56.292Z,16.60
2018-04-24T07:45:23.753Z,16.70
2018-04-24T07:47:51.226Z,16.80
2018-04-24T07:50:18.713Z,16.90
2018-04-24T07:52:46.198Z,17.00
2018-04-24T07:55:13.655Z,17.10
2018-04-24T07:57:41.218Z,17.20
2018-04-24T08:00:08.896Z,17.10
2018-04-24T08:02:36.356Z,17.10
2018-04-24T08:05:03.942Z,17.10
2018-04-24T08:07:31.610Z,17.20
2018-04-24T08:09:59.084Z,17.30
2018-04-24T08:12:26.689Z,17.30
2018-04-24T08:14:54.924Z,17.60
2018-04-24T08:17:22.410Z,17.50
2018-04-24T08:19:49.895Z,17.60
2018-04-24T08:22:18.127Z,17.70
2018-04-24T08:24:45.613Z,17.70
2018-04-24T08:27:13.224Z,17.90
2018-04-24T08:29:40.714Z,17.90
2018-04-24T08:32:08.365Z,17.90
2018-04-24T08:34:35.849Z,17.80
2018-04-24T08:37:03.350Z,17.60
2018-04-24T08:39:31.590Z,17.60
2018-04-24T08:41:59.152Z,17.60
2018-04-24T08:44:26.622Z,17.90
2018-04-24T08:46:54.355Z,18.00
2018-04-24T08:49:21.871Z,18.00
2018-04-24T08:51:49.354Z,18.00
2018-04-24T08:54:17.774Z,18.20
2018-04-24T08:56:45.362Z,18.20
2018-04-24T08:59:12.818Z,18.20
2018-04-24T09:01:40.463Z,18.10
2018-04-24T09:04:07.968Z,18.10
2018-04-24T09:06:35.443Z,18.10
2018-04-24T09:09:02.917Z,18.10
2018-04-24T09:11:31.153Z,18.40
2018-04-24T09:13:58.724Z,18.40
2018-04-24T09:16:26.236Z,18.50
2018-04-24T09:18:54.654Z,18.60
2018-04-24T09:21:22.119Z,18.50
2018-04-24T09:23:49.613Z,18.70
2018-04-24T09:26:17.406Z,18.60
2018-04-24T09:28:46.485Z,18.70
2018-04-24T09:31:13.983Z,18.60
2018-04-24T09:33:41.537Z,18.70
2018-04-24T09:36:09.767Z,18.80
2018-04-24T09:38:37.244Z,18.70
2018-04-24T09:41:04.795Z,18.80
2018-04-24T09:43:32.251Z,18.90
2018-04-24T09:45:59.784Z,19.10
2018-04-24T09:48:27.294Z,19.20
2018-04-24T09:50:54.825Z,19.30
2018-04-24T09:53:22.235Z,19.30
2018-04-24T09:55:50.495Z,19.40
2018-04-24T09:58:17.975Z,19.30
2018-04-24T10:00:45.460Z,19.40
2018-04-24T10:03:13.739Z,19.60
2018-04-24T10:05:42.210Z,19.40
2018-04-24T10:08:09.931Z,19.40
2018-04-24T10:10:37.470Z,19.40
2018-04-24T10:13:04.995Z,19.50
2018-04-24T10:15:32.558Z,19.60
2018-04-24T10:18:00.111Z,19.80
2018-04-24T10:20:27.572Z,19.90
2018-04-24T10:22:55.124Z,19.90
2018-04-24T10:25:22.579Z,19.90
2018-04-24T10:27:50.042Z,19.90
2018-04-24T10:30:17.486Z,20.20
2018-04-24T10:32:44.998Z,20.40
2018-04-24T10:35:12.470Z,20.60
2018-04-24T10:37:39.991Z,20.70
2018-04-24T10:40:07.482Z,20.80
2018-04-24T10:42:34.965Z,20.90
2018-04-24T10:45:03.950Z,21.10
2018-04-24T10:47:31.511Z,21.10
2018-04-24T10:49:58.980Z,21.20
2018-04-24T10:52:26.439Z,21.20
2018-04-24T10:54:53.898Z,21.20
2018-04-24T10:57:21.363Z,21.30
2018-04-24T10:59:48.807Z,21.50
2018-04-24T11:02:16.278Z,21.60
2018-04-24T11:04:43.858Z,21.80
2018-04-24T11:07:11.410Z,21.80
2018-04-24T11:09:38.946Z,22.00
2018-04-24T11:12:06.443Z,22.10
2018-04-24T11:14:33.916Z,22.20
2018-04-24T11:17:01.405Z,22.30
2018-04-24T11:19:28.931Z,22.30
2018-04-24T11:21:56.774Z,22.50
2018-04-24T11:24:24.472Z,22.40
2018-04-24T11:26:51.991Z,22.30
2018-04-24T11:29:19.415Z,22.40
2018-04-24T11:31:46.855Z,22.50
2018-04-24T11:34:14.359Z,22.50
2018-04-24T11:36:41.926Z,22.60
2018-04-24T11:39:09.366Z,22.70
2018-04-24T11:41:38.456Z,22.80
2018-04-24T11:44:06.127Z,22.70
2018-04-24T11:46:33.584Z,22.90
2018-04-24T11:49:01.062Z,22.90
2018-04-24T11:51:28.517Z,22.90
2018-04-24T11:53:56.068Z,22.80
2018-04-24T11:56:23.539Z,22.60
2018-04-24T11:58:51.112Z,22.60
2018-04-24T12:01:18.660Z,22.80
2018-04-24T12:03:46.095Z,22.80
2018-04-24T12:06:13.582Z,22.70
2018-04-24T12:08:41.066Z,22.70
2018-04-24T12:11:08.530Z,22.70
2018-04-24T12:13:35.978Z,22.60
2018-04-24T12:16:03.442Z,22.50
2018-04-24T12:18:30.910Z,22.40
2018-04-24T12:20:58.574Z,22.20
2018-04-24T12:23:26.119Z,22.20
2018-04-24T12:25:53.768Z,22.30
2018-04-24T12:28:21.360Z,22.50
2018-04-24T12:30:48.847Z,22.50
2018-04-24T12:33:16.446Z,22.50
2018-04-24T12:35:44.138Z,22.50
2018-04-24T12:38:11.606Z,22.40
2018-04-24T12:40:39.058Z,22.40
2018-04-24T12:43:06.534Z,22.50
2018-04-24T12:45:34.077Z,22.60
2018-04-24T12:48:07.378Z,22.60
2018-04-24T12:50:34.845Z,22.60
2018-04-24T12:53:02.339Z,22.60
2018-04-24T12:55:29.771Z,22.50
2018-04-24T12:57:57.355Z,22.40
2018-04-24T13:00:24.802Z,22.40
2018-04-24T13:02:52.657Z,22.50
2018-04-24T13:05:20.166Z,22.60
2018-04-24T13:07:47.686Z,22.50
2018-04-24T13:10:15.161Z,22.30
2018-04-24T13:12:42.688Z,22.20
2018-04-24T13:15:10.220Z,22.20
2018-04-24T13:17:37.815Z,21.80
2018-04-24T13:20:05.346Z,21.80
2018-04-24T13:22:32.807Z,21.70
2018-04-24T13:25:00.251Z,21.80
2018-04-24T13:27:27.709Z,21.80
2018-04-24T13:29:55.204Z,21.90
2018-04-24T13:32:22.669Z,22.00
2018-04-24T13:34:51.878Z,22.20
2018-04-24T13:37:20.439Z,22.20
2018-04-24T13:39:47.901Z,22.20
2018-04-24T13:42:15.434Z,22.20
2018-04-24T13:44:43.786Z,22.20
2018-04-24T13:47:12.230Z,22.20
2018-04-24T13:49:39.775Z,22.20
2018-04-24T13:52:07.293Z,22.30
2018-04-24T13:54:34.891Z,22.50
2018-04-24T13:57:02.401Z,22.50
2018-04-24T13:59:29.890Z,22.50
2018-04-24T14:01:57.554Z,22.50
2018-04-24T14:04:25.122Z,22.30
2018-04-24T14:06:52.566Z,22.10
2018-04-24T14:09:20.105Z,22.10
2018-04-24T14:11:47.589Z,22.20
2018-04-24T14:14:15.344Z,22.30
2018-04-24T14:16:42.905Z,22.30
2018-04-24T14:19:10.385Z,22.40
2018-04-24T14:21:37.895Z,22.60
2018-04-24T14:24:05.300Z,22.60
2018-04-24T14:26:32.767Z,22.60
2018-04-24T14:29:01.616Z,22.30
2018-04-24T14:31:29.289Z,22.20
2018-04-24T14:33:56.889Z,22.00
2018-04-24T14:36:26.171Z,21.90
2018-04-24T14:38:53.686Z,21.90
2018-04-24T14:41:22.594Z,21.80
2018-04-24T14:43:50.383Z,21.70
2018-04-24T14:46:18.274Z,21.80
2018-04-24T14:48:45.857Z,21.80
2018-04-24T14:51:13.327Z,21.80
2018-04-24T14:53:40.799Z,21.90
2018-04-24T14:56:08.259Z,21.90
2018-04-24T14:58:35.711Z,21.80
2018-04-24T15:01:03.266Z,22.00
2018-04-24T15:03:30.945Z,22.00
2018-04-24T15:05:58.420Z,21.90
2018-04-24T15:08:25.895Z,21.90
2018-04-24T15:10:53.528Z,21.90
2018-04-24T15:13:21.097Z,21.80
2018-04-24T15:15:48.551Z,21.70
2018-04-24T15:18:16.138Z,21.80
2018-04-24T15:20:43.612Z,21.90
2018-04-24T15:23:11.068Z,21.90
2018-04-24T15:25:38.536Z,21.80
2018-04-24T15:28:06.022Z,21.80
2018-04-24T15:30:33.533Z,21.80
2018-04-24T15:33:00.979Z,21.70
2018-04-24T15:35:28.466Z,21.70
2018-04-24T15:37:56.316Z,21.70
2018-04-24T15:40:23.791Z,21.60
2018-04-24T15:42:51.266Z,21.60
2018-04-24T15:45:18.736Z,21.50
2018-04-24T15:47:46.174Z,21.40
2018-04-24T15:50:13.643Z,21.30
2018-04-24T15:52:41.090Z,21.30
2018-04-24T15:55:08.567Z,21.30
2018-04-24T15:57:36.138Z,21.30
2018-04-24T16:00:03.574Z,21.30
2018-04-24T16:02:31.073Z,21.30
2018-04-24T16:04:59.319Z,21.30
2018-04-24T16:07:26.806Z,21.30
2018-04-24T16:09:54.258Z,21.30
2018-04-24T16:12:21.828Z,21.30
2018-04-24T16:14:49.301Z,21.20
2018-04-24T16:17:16.753Z,21.10
2018-04-24T16:19:44.309Z,21.10
2018-04-24T16:22:11.793Z,21.10
2018-04-24T16:24:39.231Z,21.20
2018-04-24T16:27:06.707Z,21.10
2018-04-24T16:29:34.257Z,21.00
2018-04-24T16:32:01.619Z,21.00
2018-04-24T16:34:29.096Z,20.90
2018-04-24T16:36:56.532Z,20.90
2018-04-24T16:39:24.557Z,20.90
2018-04-24T16:41:51.890Z,20.90
2018-04-24T16:44:19.353Z,20.90
2018-04-24T16:46:46.914Z,20.90
2018-04-24T16:49:14.482Z,20.80
2018-04-24T16:51:42.049Z,20.80
2018-04-24T16:54:09.608Z,20.90
2018-04-24T16:56:37.249Z,20.90
2018-04-24T16:59:04.684Z,20.80
2018-04-24T17:01:32.912Z,20.80
2018-04-24T17:04:00.487Z,20.70
2018-04-24T17:06:27.951Z,20.70
2018-04-24T17:08:55.517Z,20.70
2018-04-24T17:11:23.064Z,20.70
2018-04-24T17:13:50.439Z,20.70
2018-04-24T17:16:17.890Z,20.70
2018-04-24T17:18:45.405Z,20.60
2018-04-24T17:21:12.826Z,20.60
2018-04-24T17:23:40.279Z,20.50
2018-04-24T17:26:07.925Z,20.40
2018-04-24T17:28:35.392Z,20.40
2018-04-24T17:31:02.874Z,20.40
2018-04-24T17:33:30.458Z,20.40
2018-04-24T17:35:57.934Z,20.40
2018-04-24T17:38:25.403Z,20.30
2018-04-24T17:40:53.632Z,20.30
2018-04-24T17:43:21.095Z,20.20
2018-04-24T17:45:48.563Z,20.20
2018-04-24T17:48:16.039Z,20.20
2018-04-24T17:50:43.500Z,20.10
2018-04-24T17:53:10.974Z,20.10
2018-04-24T17:55:38.443Z,20.10
2018-04-24T17:58:05.988Z,20.00
2018-04-24T18:00:33.460Z,19.90
2018-04-24T18:03:00.936Z,20.00
2018-04-24T18:05:28.396Z,19.90
2018-04-24T18:07:55.937Z,19.80
2018-04-24T18:10:23.412Z,19.80
2018-04-24T18:12:50.855Z,19.70
2018-04-24T18:15:18.323Z,19.70
2018-04-24T18:17:45.883Z,19.60
2018-04-24T18:20:13.472Z,19.60
2018-04-24T18:22:41.140Z,19.50
2018-04-24T18:25:08.580Z,19.50
2018-04-24T18:27:36.053Z,19.40
2018-04-24T18:30:03.524Z,19.30
2018-04-24T18:32:30.995Z,19.30
2018-04-24T18:34:58.457Z,19.20
2018-04-24T18:37:25.937Z,19.10
2018-04-24T18:39:53.478Z,19.00
2018-04-24T18:42:20.937Z,19.00
2018-04-24T18:44:48.981Z,18.90
2018-04-24T18:47:16.462Z,18.80
2018-04-24T18:49:43.932Z,18.70
2018-04-24T18:52:11.395Z,18.70
2018-04-24T18:54:38.855Z,18.60
2018-04-24T18:57:06.330Z,18.60
2018-04-24T18:59:33.787Z,18.50
2018-04-24T19:02:01.223Z,18.40
2018-04-24T19:04:28.694Z,18.40
2018-04-24T19:06:56.152Z,18.30
2018-04-24T19:09:23.616Z,18.20
2018-04-24T19:11:51.059Z,18.20
2018-04-24T19:14:24.491Z,18.20
2018-04-24T19:16:51.961Z,18.10
2018-04-24T19:19:25.142Z,18.10
2018-04-24T19:21:52.609Z,18.10
2018-04-24T19:24:25.770Z,18.00
2018-04-24T19:26:53.286Z,17.90
2018-04-24T19:29:21.691Z,17.80
2018-04-24T19:31:55.637Z,17.70
2018-04-24T19:34:23.119Z,17.60
2018-04-24T19:36:50.562Z,17.60
2018-04-24T19:39:23.600Z,17.50
2018-04-24T19:41:51.053Z,17.40
2018-04-24T19:44:18.600Z,17.30
2018-04-24T19:46:46.077Z,17.30
2018-04-24T19:49:19.350Z,17.20
2018-04-24T19:51:46.815Z,17.20
2018-04-24T19:54:14.254Z,17.10
2018-04-24T19:56:41.721Z,17.00
2018-04-24T19:59:09.209Z,17.00
2018-04-24T20:01:36.660Z,16.90
2018-04-24T20:04:04.134Z,16.90
2018-04-24T20:06:31.635Z,16.80
2018-04-24T20:08:59.862Z,16.70
2018-04-24T20:11:27.324Z,16.60
2018-04-24T20:13:54.799Z,16.60
2018-04-24T20:16:22.278Z,16.60
2018-04-24T20:18:49.847Z,16.50
2018-04-24T20:21:17.306Z,16.50
2018-04-24T20:23:45.484Z,16.40
2018-04-24T20:26:13.140Z,16.40
2018-04-24T20:28:40.698Z,16.30
2018-04-24T20:31:08.154Z,16.30
2018-04-24T20:33:35.626Z,16.20
2018-04-24T20:36:03.089Z,16.10
2018-04-24T20:38:30.548Z,16.10
2018-04-24T20:40:58.012Z,16.00
2018-04-24T20:43:25.581Z,16.00
2018-04-24T20:45:53.900Z,15.90
2018-04-24T20:48:22.137Z,15.80
2018-04-24T20:50:49.606Z,15.70
2018-04-24T20:53:17.162Z,15.80
2018-04-24T20:55:44.542Z,15.70
2018-04-24T20:58:12.012Z,15.70
2018-04-24T21:00:40.273Z,15.60
2018-04-24T21:03:07.699Z,15.50
2018-04-24T21:05:35.189Z,15.60
2018-04-24T21:08:02.667Z,15.50
2018-04-24T21:10:30.255Z,15.40
2018-04-24T21:12:58.503Z,15.30
2018-04-24T21:15:25.960Z,15.30
2018-04-24T21:17:53.635Z,15.30
2018-04-24T21:20:21.079Z,15.30
2018-04-24T21:22:48.562Z,15.30
2018-04-24T21:25:16.026Z,15.20
2018-04-24T21:27:43.467Z,15.20
2018-04-24T21:30:11.040Z,15.20
2018-04-24T21:32:38.568Z,15.20
2018-04-24T21:35:06.837Z,15.00
2018-04-24T21:37:34.358Z,15.00
2018-04-24T21:40:01.810Z,15.00
2018-04-24T21:42:29.380Z,15.00
2018-04-24T21:44:56.914Z,14.90
2018-04-24T21:47:24.371Z,14.80
2018-04-24T21:49:51.842Z,14.80
2018-04-24T21:52:19.340Z,14.80
2018-04-24T21:54:46.827Z,14.70
2018-04-24T21:57:14.272Z,14.70
2018-04-24T21:59:41.733Z,14.70
2018-04-24T22:02:09.284Z,14.60
2018-04-24T22:04:36.731Z,14.60
2018-04-24T22:07:04.213Z,14.50
2018-04-24T22:09:31.666Z,14.40
2018-04-24T22:11:59.138Z,14.40
2018-04-24T22:14:26.601Z,14.40
2018-04-24T22:16:54.867Z,14.30
2018-04-24T22:19:22.333Z,14.30
2018-04-24T22:21:49.824Z,14.30
2018-04-24T22:24:18.542Z,14.20
2018-04-24T22:26:46.792Z,14.20
2018-04-24T22:29:14.270Z,14.10
2018-04-24T22:31:41.806Z,14.10
2018-04-24T22:34:09.253Z,14.10
2018-04-24T22:36:36.881Z,14.10
2018-04-24T22:39:05.868Z,13.90
2018-04-24T22:41:33.330Z,13.90
2018-04-24T22:44:01.563Z,13.90
2018-04-24T22:46:29.043Z,13.80
2018-04-24T22:48:56.512Z,13.90
2018-04-24T22:51:24.002Z,13.70
2018-04-24T22:53:52.233Z,13.70
2018-04-24T22:56:19.690Z,13.60
2018-04-24T22:58:47.150Z,13.70
2018-04-24T23:01:14.626Z,13.70
2018-04-24T23:03:42.083Z,13.70
2018-04-24T23:06:09.653Z,13.80
2018-04-24T23:08:37.099Z,13.70
2018-04-24T23:11:16.252Z,13.70
2018-04-24T23:13:55.679Z,13.70
2018-04-24T23:16:35.065Z,13.60
2018-04-24T23:19:15.175Z,13.50
2018-04-24T23:21:42.215Z,13.40
2018-04-24T23:24:09.699Z,13.40
2018-04-24T23:26:37.256Z,13.40
2018-04-24T23:29:04.711Z,13.40
2018-04-24T23:31:32.159Z,13.30
2018-04-24T23:33:59.630Z,13.30
2018-04-24T23:36:27.074Z,13.30
2018-04-24T23:38:54.573Z,13.30
2018-04-24T23:41:22.040Z,13.20
2018-04-24T23:43:50.247Z,13.10
2018-04-24T23:46:18.478Z,13.10
2018-04-24T23:48:45.935Z,13.10
2018-04-24T23:51:13.415Z,13.10
2018-04-24T23:53:40.859Z,13.00
2018-04-24T23:56:08.437Z,13.00
2018-04-24T23:58:35.895Z,12.90
